createdAt,value
2022-09-21T00:00:35.717Z,10.02
2022-09-21T00:03:03.822Z,9.88
2022-09-21T00:05:31.882Z,9.75
2022-09-21T00:08:01.013Z,9.63
2022-09-21T00:10:30.507Z,9.95
2022-09-21T00:12:59.057Z,9.75
2022-09-21T00:15:27.210Z,9.70
2022-09-21T00:17:55.345Z,9.63
2022-09-21T00:20:23.422Z,8.90
2022-09-21T00:22:51.675Z,9.57
2022-09-21T00:25:19.961Z,9.48
2022-09-21T00:27:51.465Z,9.65
2022-09-21T00:30:19.962Z,9.15
2022-09-21T00:32:48.097Z,9.27
2022-09-21T00:35:16.246Z,9.13
2022-09-21T00:37:44.287Z,8.98
2022-09-21T00:40:12.486Z,9.00
2022-09-21T00:42:40.578Z,8.48
2022-09-21T00:45:21.046Z,8.38
2022-09-21T00:47:50.058Z,7.97
2022-09-21T00:50:20.094Z,8.55
2022-09-21T00:52:49.910Z,8.35
2022-09-21T00:55:19.905Z,8.30
2022-09-21T00:57:48.203Z,8.35
2022-09-21T01:00:17.675Z,8.00
2022-09-21T01:02:45.745Z,8.10
2022-09-21T01:05:13.887Z,7.95
2022-09-21T01:07:44.370Z,8.15
2022-09-21T01:10:14.118Z,8.40
2022-09-21T01:12:51.936Z,7.95
2022-09-21T01:15:30.453Z,7.93
2022-09-21T01:18:01.940Z,7.55
2022-09-21T01:21:09.046Z,7.97
2022-09-21T01:23:48.013Z,7.20
2022-09-21T01:26:18.754Z,7.63
2022-09-21T01:29:19.866Z,7.50
2022-09-21T01:31:50.949Z,7.38
2022-09-21T01:34:24.977Z,7.70
2022-09-21T01:36:53.121Z,7.28
2022-09-21T01:39:21.900Z,7.00
2022-09-21T01:41:50.925Z,6.88
2022-09-21T01:44:21.948Z,6.88
2022-09-21T01:46:50.152Z,7.00
2022-09-21T01:49:19.222Z,6.97
2022-09-21T01:51:49.688Z,6.85
2022-09-21T01:54:21.765Z,6.88
2022-09-21T01:56:52.010Z,7.03
2022-09-21T01:59:23.596Z,6.70
2022-09-21T02:01:54.258Z,6.30
2022-09-21T02:04:22.423Z,6.80
2022-09-21T02:06:50.629Z,6.10
2022-09-21T02:09:18.733Z,6.40
2022-09-21T02:11:46.821Z,6.65
2022-09-21T02:14:18.229Z,6.60
2022-09-21T02:16:49.398Z,6.47
2022-09-21T02:19:22.176Z,6.18
2022-09-21T02:21:58.525Z,6.15
2022-09-21T02:24:31.637Z,6.10
2022-09-21T02:27:03.909Z,6.20
2022-09-21T02:29:38.229Z,6.13
2022-09-21T02:32:10.210Z,5.43
2022-09-21T02:34:45.801Z,5.97
2022-09-21T02:37:19.738Z,6.07
2022-09-21T02:39:50.522Z,5.80
2022-09-21T02:42:20.382Z,6.03
2022-09-21T02:44:52.369Z,5.57
2022-09-21T02:47:23.669Z,6.30
2022-09-21T02:49:54.856Z,5.55
2022-09-21T02:52:23.021Z,5.53
2022-09-21T02:54:52.234Z,5.30
2022-09-21T02:57:21.637Z,5.50
2022-09-21T02:59:50.126Z,5.22
2022-09-21T03:02:18.479Z,5.35
2022-09-21T03:04:49.115Z,5.20
2022-09-21T03:07:17.261Z,5.25
2022-09-21T03:09:45.284Z,5.18
2022-09-21T03:12:13.937Z,5.40
2022-09-21T03:14:41.991Z,4.95
2022-09-21T03:17:10.144Z,4.82
2022-09-21T03:19:38.210Z,5.22
2022-09-21T03:22:07.735Z,4.97
2022-09-21T03:24:47.506Z,5.35
2022-09-21T03:27:15.834Z,5.20
2022-09-21T03:29:43.886Z,4.70
2022-09-21T03:32:12.037Z,4.90
2022-09-21T03:34:42.498Z,4.63
2022-09-21T03:37:12.059Z,4.80
2022-09-21T03:39:40.143Z,4.50
2022-09-21T03:42:10.042Z,4.38
2022-09-21T03:44:38.632Z,4.50
2022-09-21T03:47:07.745Z,4.63
2022-09-21T03:49:36.025Z,4.25
2022-09-21T03:52:04.686Z,4.20
2022-09-21T03:54:34.439Z,4.50
2022-09-21T03:57:02.837Z,4.88
2022-09-21T03:59:30.922Z,4.28
2022-09-21T04:01:59.029Z,4.57
2022-09-21T04:04:27.090Z,4.35
2022-09-21T04:06:55.217Z,4.47
2022-09-21T04:09:23.508Z,4.10
2022-09-21T04:11:54.168Z,4.20
2022-09-21T04:14:23.312Z,4.07
2022-09-21T04:16:52.164Z,3.85
2022-09-21T04:19:21.137Z,4.05
2022-09-21T04:21:51.397Z,3.83
2022-09-21T04:24:19.875Z,4.20
2022-09-21T04:26:47.990Z,3.95
2022-09-21T04:29:17.539Z,3.80
2022-09-21T04:31:45.602Z,3.85
2022-09-21T04:34:14.077Z,4.03
2022-09-21T04:36:42.203Z,3.90
2022-09-21T04:39:10.381Z,5.95
2022-09-21T04:41:38.527Z,7.15
2022-09-21T04:44:06.840Z,5.63
2022-09-21T04:46:36.322Z,4.85
2022-09-21T04:49:04.531Z,5.18
2022-09-21T04:51:32.717Z,7.07
2022-09-21T04:54:00.993Z,7.45
2022-09-21T04:56:29.225Z,6.93
2022-09-21T04:58:57.523Z,8.60
2022-09-21T05:01:25.741Z,5.60
2022-09-21T05:03:55.480Z,5.85
2022-09-21T05:06:23.608Z,5.60
2022-09-21T05:09:09.457Z,5.35
2022-09-21T05:11:38.097Z,5.50
2022-09-21T05:14:06.278Z,6.18
2022-09-21T05:16:34.493Z,6.60
2022-09-21T05:19:04.057Z,7.32
2022-09-21T05:21:32.985Z,8.85
2022-09-21T05:24:01.094Z,11.05
2022-09-21T05:26:29.153Z,8.00
2022-09-21T05:28:57.935Z,13.75
2022-09-21T05:31:33.991Z,14.35
2022-09-21T05:34:07.678Z,12.88
2022-09-21T05:36:43.145Z,12.32
2022-09-21T05:39:14.866Z,12.82
2022-09-21T05:41:43.737Z,11.00
2022-09-21T05:44:13.202Z,11.88
2022-09-21T05:46:42.401Z,13.98
2022-09-21T05:49:17.297Z,11.65
2022-09-21T05:51:50.205Z,12.60
2022-09-21T05:54:21.255Z,15.43
2022-09-21T05:56:51.406Z,12.77
2022-09-21T05:59:32.712Z,15.30
2022-09-21T06:02:05.286Z,14.27
2022-09-21T06:04:35.477Z,14.02
2022-09-21T06:07:03.549Z,14.40
2022-09-21T06:09:31.642Z,13.10
2022-09-21T06:11:59.845Z,12.85
2022-09-21T06:14:28.731Z,12.63
2022-09-21T06:16:56.854Z,13.38
2022-09-21T06:19:24.983Z,17.27
2022-09-21T06:21:54.490Z,18.17
2022-09-21T06:24:24.254Z,34.88
2022-09-21T06:26:53.181Z,33.58
2022-09-21T06:29:23.685Z,30.70
2022-09-21T06:31:52.231Z,25.85
2022-09-21T06:34:20.229Z,25.42
2022-09-21T06:36:48.384Z,23.35
2022-09-21T06:39:17.813Z,23.42
2022-09-21T06:41:45.938Z,24.00
2022-09-21T06:44:13.994Z,24.52
2022-09-21T06:46:42.170Z,28.02
2022-09-21T06:49:10.217Z,24.63
2022-09-21T06:51:38.364Z,26.52
2022-09-21T06:54:06.619Z,25.27
2022-09-21T06:56:36.610Z,25.98
2022-09-21T06:59:04.711Z,25.17
2022-09-21T07:01:32.908Z,23.98
2022-09-21T07:04:01.129Z,24.58
2022-09-21T07:06:29.445Z,23.50
2022-09-21T07:11:48.079Z,27.02
2022-09-21T07:14:16.249Z,24.65
2022-09-21T07:16:44.552Z,23.88
2022-09-21T07:19:12.786Z,23.98
2022-09-21T07:21:41.011Z,25.45
2022-09-21T07:24:12.501Z,25.10
2022-09-21T07:26:40.958Z,26.95
2022-09-21T07:29:10.527Z,26.08
2022-09-21T07:31:38.728Z,27.48
2022-09-21T07:34:07.034Z,27.60
2022-09-21T07:36:35.105Z,28.00
2022-09-21T07:39:03.715Z,27.98
2022-09-21T07:41:31.808Z,27.48
2022-09-21T07:43:59.888Z,27.90
2022-09-21T07:46:29.455Z,26.60
2022-09-21T07:48:57.669Z,21.25
2022-09-21T07:51:25.860Z,11.23
2022-09-21T07:53:56.734Z,14.13
2022-09-21T07:56:24.946Z,18.10
2022-09-21T07:59:06.925Z,19.25
2022-09-21T08:01:37.305Z,19.08
2022-09-21T08:04:06.148Z,18.67
2022-09-21T08:06:35.319Z,18.98
2022-09-21T08:09:03.633Z,18.77
2022-09-21T08:11:33.214Z,18.48
2022-09-21T08:14:02.003Z,19.27
2022-09-21T08:16:30.750Z,18.08
2022-09-21T08:19:00.287Z,18.20
2022-09-21T08:21:28.449Z,18.73
2022-09-21T08:23:56.512Z,18.15
2022-09-21T08:26:24.819Z,17.95
2022-09-21T08:28:53.714Z,18.20
2022-09-21T08:31:24.305Z,16.77
2022-09-21T08:33:52.802Z,16.70
2022-09-21T08:36:22.282Z,17.52
2022-09-21T08:38:50.957Z,18.00
2022-09-21T08:41:20.271Z,18.35
2022-09-21T08:43:50.134Z,18.58
2022-09-21T08:46:19.279Z,19.05
2022-09-21T08:48:49.139Z,18.25
2022-09-21T08:51:18.731Z,18.55
2022-09-21T08:53:48.578Z,17.52
2022-09-21T08:56:16.771Z,18.45
2022-09-21T08:58:44.818Z,17.92
2022-09-21T09:01:32.354Z,18.20
2022-09-21T09:04:11.865Z,17.50
2022-09-21T09:06:42.405Z,16.80
2022-09-21T09:09:44.414Z,17.05
2022-09-21T09:12:22.030Z,16.77
2022-09-21T09:15:24.046Z,16.48
2022-09-21T09:17:56.258Z,17.17
2022-09-21T09:20:27.398Z,16.50
2022-09-21T09:23:06.967Z,16.50
2022-09-21T09:25:38.418Z,16.48
2022-09-21T09:28:18.509Z,17.23
2022-09-21T09:30:57.682Z,16.33
2022-09-21T09:33:28.006Z,15.85
2022-09-21T09:35:59.508Z,16.27
2022-09-21T09:38:30.159Z,15.82
2022-09-21T09:41:08.389Z,15.60
2022-09-21T09:43:43.034Z,15.63
2022-09-21T09:46:13.719Z,14.85
2022-09-21T09:49:10.071Z,15.52
2022-09-21T09:51:40.105Z,14.70
2022-09-21T09:54:14.414Z,14.98
2022-09-21T09:56:44.086Z,15.00
2022-09-21T09:59:14.283Z,14.55
2022-09-21T10:01:43.329Z,14.18
2022-09-21T10:04:12.148Z,14.60
2022-09-21T10:06:45.839Z,14.43
2022-09-21T10:09:23.618Z,14.05
2022-09-21T10:11:53.531Z,14.60
2022-09-21T10:14:23.019Z,14.15
2022-09-21T10:16:52.798Z,14.02
2022-09-21T10:19:22.874Z,13.98
2022-09-21T10:21:53.330Z,13.55
2022-09-21T10:24:23.524Z,13.48
2022-09-21T10:26:54.652Z,13.48
2022-09-21T10:29:31.496Z,13.48
2022-09-21T10:32:00.742Z,13.65
2022-09-21T10:34:30.388Z,14.30
2022-09-21T10:36:59.766Z,13.02
2022-09-21T10:39:30.753Z,13.30
2022-09-21T10:42:02.444Z,13.10
2022-09-21T10:44:36.338Z,13.27
2022-09-21T10:47:16.925Z,13.82
2022-09-21T10:49:46.533Z,12.85
2022-09-21T10:52:14.615Z,13.10
2022-09-21T10:54:42.911Z,12.70
2022-09-21T10:57:16.682Z,12.23
2022-09-21T10:59:44.976Z,12.65
2022-09-21T11:02:29.571Z,12.52
2022-09-21T11:04:59.645Z,12.10
2022-09-21T11:07:31.515Z,13.00
2022-09-21T11:10:01.638Z,12.57
2022-09-21T11:12:46.590Z,12.40
2022-09-21T11:15:19.484Z,12.50
2022-09-21T11:17:49.630Z,12.65
2022-09-21T11:20:23.971Z,13.27
2022-09-21T11:22:58.751Z,12.73
2022-09-21T11:25:33.374Z,12.40
2022-09-21T11:28:05.579Z,12.00
2022-09-21T11:30:41.752Z,11.88
2022-09-21T11:33:16.905Z,12.55
2022-09-21T11:35:49.045Z,11.70
2022-09-21T11:38:23.563Z,11.18
2022-09-21T11:41:13.805Z,12.38
2022-09-21T11:43:54.681Z,11.40
2022-09-21T11:46:26.277Z,11.50
2022-09-21T11:49:01.270Z,12.10
2022-09-21T11:51:38.751Z,11.68
2022-09-21T11:54:51.903Z,12.25
2022-09-21T11:57:22.973Z,11.27
2022-09-21T12:00:10.105Z,11.63
2022-09-21T12:02:53.484Z,11.02
2022-09-21T12:05:23.857Z,11.27
2022-09-21T12:08:05.729Z,11.02
2022-09-21T12:10:43.533Z,11.20
2022-09-21T12:13:18.098Z,11.40
2022-09-21T12:15:51.077Z,10.27
2022-09-21T12:18:21.503Z,11.00
2022-09-21T12:20:51.958Z,11.00
2022-09-21T12:23:21.690Z,11.18
2022-09-21T12:25:52.065Z,11.15
2022-09-21T12:28:23.824Z,10.65
2022-09-21T12:31:00.269Z,10.82
2022-09-21T12:33:40.428Z,11.00
2022-09-21T12:36:11.802Z,10.32
2022-09-21T12:38:43.030Z,10.27
2022-09-21T12:41:16.050Z,9.95
2022-09-21T12:43:45.743Z,10.52
2022-09-21T12:46:16.475Z,10.00
2022-09-21T12:48:45.713Z,10.20
2022-09-21T12:51:17.040Z,9.98
2022-09-21T12:53:50.911Z,10.07
2022-09-21T12:56:24.295Z,8.00
2022-09-21T12:58:58.659Z,5.45
2022-09-21T13:01:32.325Z,7.10
2022-09-21T13:04:12.420Z,6.63
2022-09-21T13:06:51.841Z,6.47
2022-09-21T13:09:20.349Z,5.13
2022-09-21T13:11:53.389Z,6.00
2022-09-21T13:14:22.049Z,6.60
2022-09-21T13:16:57.656Z,6.50
2022-09-21T13:19:26.702Z,6.88
2022-09-21T13:22:20.019Z,7.25
2022-09-21T13:25:03.099Z,7.18
2022-09-21T13:28:07.655Z,7.53
2022-09-21T13:30:38.150Z,6.85
2022-09-21T13:33:31.970Z,5.82
2022-09-21T13:36:06.277Z,6.40
2022-09-21T13:38:37.433Z,7.10
2022-09-21T13:41:08.971Z,6.53
2022-09-21T13:44:05.207Z,7.15
2022-09-21T13:46:55.411Z,7.38
2022-09-21T13:49:39.844Z,6.57
2022-09-21T13:52:09.360Z,6.78
2022-09-21T13:54:38.723Z,6.88
2022-09-21T13:57:27.125Z,6.72
2022-09-21T14:00:07.800Z,6.65
2022-09-21T14:02:46.254Z,6.60
2022-09-21T14:05:25.000Z,6.70
2022-09-21T14:07:56.664Z,6.20
2022-09-21T14:10:26.310Z,6.70
2022-09-21T14:12:55.917Z,6.18
2022-09-21T14:15:36.206Z,6.43
2022-09-21T14:18:47.004Z,6.20
2022-09-21T14:21:21.021Z,6.10
2022-09-21T14:24:25.437Z,6.63
2022-09-21T14:27:02.755Z,6.13
2022-09-21T14:29:36.598Z,6.10
2022-09-21T14:32:05.618Z,5.80
2022-09-21T14:34:36.781Z,6.30
2022-09-21T14:37:12.082Z,6.32
2022-09-21T14:39:42.064Z,6.35
2022-09-21T14:42:15.745Z,6.03
2022-09-21T14:44:44.715Z,6.07
2022-09-21T14:47:35.389Z,5.47
2022-09-21T14:50:17.535Z,6.25
2022-09-21T14:53:09.566Z,5.72
2022-09-21T14:55:49.379Z,5.50
2022-09-21T14:58:25.190Z,6.00
2022-09-21T15:00:54.670Z,6.07
2022-09-21T15:03:45.367Z,6.10
2022-09-21T15:06:37.413Z,5.10
2022-09-21T15:09:36.186Z,3.10
2022-09-21T15:12:18.901Z,2.95
2022-09-21T15:14:48.487Z,3.33
2022-09-21T15:17:24.140Z,2.55
2022-09-21T15:19:52.346Z,2.30
2022-09-21T15:22:20.917Z,1.70
2022-09-21T15:24:54.261Z,1.20
2022-09-21T15:27:24.105Z,0.75
2022-09-21T15:29:53.781Z,0.65
2022-09-21T15:32:29.157Z,0.90
2022-09-21T15:35:02.126Z,0.85
2022-09-21T15:37:30.546Z,0.80
2022-09-21T15:40:03.737Z,0.90
2022-09-21T15:42:31.870Z,0.80
2022-09-21T15:45:14.930Z,0.82
2022-09-21T15:47:45.323Z,0.90
2022-09-21T15:50:14.421Z,0.85
2022-09-21T15:52:43.622Z,0.70
2022-09-21T15:55:17.973Z,0.80
2022-09-21T15:57:46.105Z,0.68
2022-09-21T16:00:22.753Z,0.70
2022-09-21T16:02:56.076Z,0.90
2022-09-21T16:05:24.522Z,1.80
2022-09-21T16:07:52.794Z,2.78
2022-09-21T16:13:37.022Z,1.70
2022-09-21T16:16:06.389Z,1.70
2022-09-21T16:18:43.240Z,1.70
2022-09-21T16:21:21.966Z,1.70
2022-09-21T16:23:50.581Z,1.60
2022-09-21T16:26:24.166Z,1.95
2022-09-21T16:28:59.530Z,2.00
2022-09-21T16:31:34.104Z,1.77
2022-09-21T16:34:07.531Z,1.58
2022-09-21T16:36:42.683Z,1.60
2022-09-21T16:39:15.839Z,1.70
2022-09-21T16:42:02.580Z,1.75
2022-09-21T16:44:40.911Z,2.22
2022-09-21T16:47:12.932Z,1.80
2022-09-21T16:49:41.261Z,2.05
2022-09-21T16:52:09.387Z,2.13
2022-09-21T16:54:38.301Z,1.88
2022-09-21T16:57:07.545Z,2.00
2022-09-21T16:59:36.993Z,1.67
2022-09-21T17:02:06.090Z,1.90
2022-09-21T17:04:35.607Z,1.88
2022-09-21T17:07:05.067Z,1.90
2022-09-21T17:09:35.479Z,1.90
2022-09-21T17:12:03.954Z,2.10
2022-09-21T17:14:35.545Z,2.28
2022-09-21T17:17:08.529Z,2.10
2022-09-21T17:19:36.905Z,1.92
2022-09-21T17:22:05.436Z,2.10
2022-09-21T17:24:49.619Z,1.90
2022-09-21T17:27:18.338Z,1.85
2022-09-21T17:29:48.379Z,2.13
2022-09-21T17:32:20.406Z,2.10
2022-09-21T17:34:50.224Z,2.17
2022-09-21T17:37:18.289Z,2.10
2022-09-21T17:39:46.405Z,1.73
2022-09-21T17:42:18.859Z,2.25
2022-09-21T17:44:55.127Z,2.05
2022-09-21T17:47:28.059Z,2.10
2022-09-21T17:49:56.585Z,2.72
2022-09-21T17:52:42.539Z,2.10
2022-09-21T17:55:13.013Z,1.67
2022-09-21T17:57:59.428Z,1.95
2022-09-21T18:00:31.553Z,2.05
2022-09-21T18:03:01.781Z,1.83
2022-09-21T18:05:30.650Z,1.92
2022-09-21T18:07:59.088Z,2.20
2022-09-21T18:10:34.851Z,1.90
2022-09-21T18:13:20.570Z,2.22
2022-09-21T18:15:57.999Z,1.80
2022-09-21T18:18:37.713Z,2.20
2022-09-21T18:21:06.759Z,1.92
2022-09-21T18:23:38.746Z,2.33
2022-09-21T18:26:15.559Z,1.92
2022-09-21T18:28:45.875Z,2.92
2022-09-21T18:31:29.843Z,11.85
2022-09-21T18:34:04.786Z,7.25
2022-09-21T18:36:34.717Z,8.43
2022-09-21T18:39:09.630Z,7.70
2022-09-21T18:41:41.204Z,7.15
2022-09-21T18:44:13.824Z,6.60
2022-09-21T18:46:50.824Z,7.13
2022-09-21T18:49:30.192Z,6.95
2022-09-21T18:52:02.457Z,6.55
2022-09-21T18:54:31.677Z,6.50
2022-09-21T18:57:00.272Z,6.75
2022-09-21T18:59:31.913Z,6.65
2022-09-21T19:02:00.945Z,5.90
2022-09-21T19:04:31.127Z,13.48
2022-09-21T19:07:04.363Z,9.63
2022-09-21T19:09:39.797Z,9.13
2022-09-21T19:12:18.495Z,9.10
2022-09-21T19:14:53.278Z,8.43
2022-09-21T19:17:29.463Z,8.10
2022-09-21T19:20:04.626Z,8.57
2022-09-21T19:22:37.715Z,8.45
2022-09-21T19:25:09.182Z,7.40
2022-09-21T19:27:39.364Z,6.25
2022-09-21T19:30:08.934Z,6.57
2022-09-21T19:32:39.911Z,26.02
2022-09-21T19:35:19.293Z,30.30
2022-09-21T19:37:48.358Z,16.10
2022-09-21T19:40:17.231Z,21.73
2022-09-21T19:42:56.437Z,19.55
2022-09-21T19:45:27.046Z,18.27
2022-09-21T19:47:55.823Z,16.45
2022-09-21T19:50:28.265Z,16.92
2022-09-21T19:53:17.024Z,16.40
2022-09-21T19:56:02.654Z,15.95
2022-09-21T19:58:48.601Z,16.05
2022-09-21T20:01:18.038Z,14.73
2022-09-21T20:03:47.192Z,15.60
2022-09-21T20:06:19.666Z,15.40
2022-09-21T20:08:51.244Z,16.48
2022-09-21T20:11:21.151Z,15.55
2022-09-21T20:14:10.585Z,15.38
2022-09-21T20:16:43.695Z,14.43
2022-09-21T20:19:22.242Z,14.88
2022-09-21T20:21:55.378Z,13.45
2022-09-21T20:24:26.029Z,14.43
2022-09-21T20:26:54.551Z,12.95
2022-09-21T20:29:23.183Z,12.57
2022-09-21T20:31:52.358Z,12.95
2022-09-21T20:34:20.542Z,12.15
2022-09-21T20:36:48.695Z,12.32
2022-09-21T20:39:18.152Z,12.60
2022-09-21T20:41:46.430Z,11.85
2022-09-21T20:44:15.112Z,12.20
2022-09-21T20:46:43.805Z,11.93
2022-09-21T20:49:15.346Z,12.13
2022-09-21T20:51:43.429Z,12.43
2022-09-21T20:54:11.490Z,11.68
2022-09-21T20:56:40.938Z,11.77
2022-09-21T20:59:09.069Z,12.07
2022-09-21T21:01:37.228Z,11.07
2022-09-21T21:04:05.354Z,11.15
2022-09-21T21:06:35.052Z,11.20
2022-09-21T21:09:03.150Z,11.25
2022-09-21T21:11:31.441Z,11.02
2022-09-21T21:14:01.465Z,10.98
2022-09-21T21:16:29.555Z,10.43
2022-09-21T21:18:57.698Z,10.73
2022-09-21T21:21:25.850Z,10.55
2022-09-21T21:24:11.017Z,10.18
2022-09-21T21:29:30.158Z,10.32
2022-09-21T21:31:59.192Z,10.40
2022-09-21T21:34:27.369Z,10.00
2022-09-21T21:36:58.413Z,10.18
2022-09-21T21:39:26.514Z,9.57
2022-09-21T21:41:54.562Z,10.02
2022-09-21T21:44:22.668Z,9.82
2022-09-21T21:46:53.394Z,10.05
2022-09-21T21:49:21.506Z,9.40
2022-09-21T21:51:50.472Z,9.25
2022-09-21T21:54:18.953Z,9.32
2022-09-21T21:56:47.077Z,9.65
2022-09-21T21:59:17.758Z,8.80
2022-09-21T22:01:46.280Z,9.10
2022-09-21T22:04:15.733Z,9.20
2022-09-21T22:06:43.794Z,9.05
2022-09-21T22:09:12.264Z,8.65
2022-09-21T22:11:40.390Z,8.52
2022-09-21T22:14:08.744Z,8.48
2022-09-21T22:16:37.875Z,8.68
2022-09-21T22:19:06.785Z,8.70
2022-09-21T22:21:39.879Z,8.70
2022-09-21T22:24:08.604Z,8.18
2022-09-21T22:26:37.554Z,8.05
2022-09-21T22:29:06.533Z,8.77
2022-09-21T22:31:36.110Z,7.97
2022-09-21T22:34:04.588Z,8.52
2022-09-21T22:36:33.522Z,7.95
2022-09-21T22:39:03.098Z,8.05
2022-09-21T22:41:32.382Z,8.52
2022-09-21T22:44:00.582Z,8.27
2022-09-21T22:46:29.182Z,7.70
2022-09-21T22:48:57.313Z,7.55
2022-09-21T22:51:25.402Z,7.60
2022-09-21T22:53:53.689Z,6.95
2022-09-21T22:56:23.807Z,7.75
2022-09-21T22:58:53.041Z,7.10
2022-09-21T23:01:25.087Z,7.22
2022-09-21T23:03:55.257Z,7.45
2022-09-21T23:06:24.173Z,7.38
2022-09-21T23:08:52.383Z,7.10
2022-09-21T23:11:24.479Z,7.35
2022-09-21T23:13:52.783Z,6.80
2022-09-21T23:16:20.880Z,7.00
2022-09-21T23:18:49.262Z,7.30
2022-09-21T23:21:18.941Z,6.72
2022-09-21T23:23:47.284Z,6.80
2022-09-21T23:26:16.536Z,7.18
2022-09-21T23:28:46.805Z,6.72
2022-09-21T23:31:15.726Z,7.35
2022-09-21T23:33:45.198Z,6.82
2022-09-21T23:36:14.168Z,6.30
2022-09-21T23:38:42.234Z,5.90
2022-09-21T23:41:13.060Z,6.93
2022-09-21T23:43:41.869Z,6.30
2022-09-21T23:46:13.243Z,6.30
2022-09-21T23:48:41.289Z,6.57
2022-09-21T23:51:09.389Z,6.32
2022-09-21T23:53:37.642Z,6.25
2022-09-21T23:56:06.165Z,5.78
2022-09-21T23:58:34.238Z,6.65
